Time;durP1;ratioP1;P1;durP2;ratioP2;P2;SDS_P1;SDS_P2;PMS_P1;PMS_P2;Temp;Humidity;BMP_temperature;BMP_pressure;BME280_temperature;BME280_humidity;BME280_pressure;Samples;Min_cycle;Max_cycle;Signal;HPM_P1;HPM_P2
2022/04/10 00:00:11;;;;;;;3.73;2.70;;;5.20;99.90;;;;;;5073605;28;20449;-60
2022/04/10 00:02:38;;;;;;;5.03;4.00;;;5.30;99.90;;;;;;5072995;28;20484;-59
2022/04/10 00:05:06;;;;;;;6.47;3.30;;;5.20;99.90;;;;;;5073252;28;20502;-58
2022/04/10 00:07:33;;;;;;;3.60;3.30;;;5.20;99.90;;;;;;5073100;28;20619;-59
2022/04/10 00:10:00;;;;;;;4.97;3.67;;;5.10;99.90;;;;;;5073234;28;20455;-58
2022/04/10 00:12:27;;;;;;;4.03;3.73;;;5.20;99.90;;;;;;5072965;28;20452;-58
2022/04/10 00:14:54;;;;;;;3.90;3.60;;;5.10;99.90;;;;;;5072929;28;20965;-58
2022/04/10 00:17:23;;;;;;;3.83;3.53;;;5.00;99.90;;;;;;5072962;28;20508;-58
2022/04/10 00:19:50;;;;;;;3.97;3.57;;;5.10;99.90;;;;;;5072738;28;20524;-58
2022/04/10 00:22:17;;;;;;;4.20;3.80;;;5.00;99.90;;;;;;5072886;28;20455;-58
2022/04/10 00:24:45;;;;;;;4.83;3.40;;;5.00;99.90;;;;;;5073065;28;20476;-57
2022/04/10 00:27:14;;;;;;;3.40;3.10;;;5.00;99.90;;;;;;5072705;28;20433;-58
2022/04/10 00:29:41;;;;;;;6.43;3.20;;;5.00;99.90;;;;;;5073225;28;20436;-57
2022/04/10 00:32:09;;;;;;;6.10;4.03;;;4.90;99.90;;;;;;5072720;28;20452;-58
2022/04/10 00:34:37;;;;;;;4.77;4.13;;;4.90;99.90;;;;;;5072980;28;20594;-58
2022/04/10 00:37:05;;;;;;;7.57;3.17;;;4.90;99.90;;;;;;5072557;28;20935;-58
2022/04/10 00:39:32;;;;;;;4.43;4.03;;;4.90;99.90;;;;;;5072557;28;20935;-58
2022/04/10 00:41:59;;;;;;;4.00;3.60;;;4.80;99.90;;;;;;5072480;28;20957;-57
2022/04/10 00:44:27;;;;;;;6.80;3.90;;;4.90;99.90;;;;;;5072872;28;20547;-58
2022/04/10 00:46:54;;;;;;;6.20;3.80;;;4.80;99.90;;;;;;5072736;28;21053;-58
2022/04/10 00:49:21;;;;;;;4.87;3.47;;;4.80;99.90;;;;;;5072998;28;20448;-57
2022/04/10 00:51:52;;;;;;;4.67;4.37;;;4.80;99.90;;;;;;5072765;28;20452;-58
2022/04/10 00:54:24;;;;;;;4.40;4.10;;;4.90;99.90;;;;;;5072784;28;20473;-58
2022/04/10 00:56:52;;;;;;;3.63;3.33;;;4.80;99.90;;;;;;5072937;28;20459;-58
2022/04/10 00:59:19;;;;;;;5.40;4.00;;;4.80;99.90;;;;;;5075264;28;20444;-58
2022/04/10 01:01:47;;;;;;;3.90;3.60;;;4.90;99.90;;;;;;5076050;28;20454;-58
2022/04/10 01:04:16;;;;;;;4.93;3.73;;;4.80;99.90;;;;;;5075977;28;20437;-58
2022/04/10 01:06:43;;;;;;;4.43;4.10;;;4.80;99.90;;;;;;5076244;28;20492;-57
2022/04/10 01:09:12;;;;;;;4.23;3.50;;;4.80;99.90;;;;;;5075916;28;21005;-58
2022/04/10 01:11:39;;;;;;;3.97;3.40;;;4.80;99.90;;;;;;5076018;28;20494;-58
2022/04/10 01:14:08;;;;;;;4.50;3.67;;;4.90;99.90;;;;;;5076098;28;20507;-58
2022/04/10 01:16:35;;;;;;;4.23;3.40;;;4.90;99.90;;;;;;5075797;28;20480;-58
2022/04/10 01:19:03;;;;;;;4.23;3.23;;;4.90;99.90;;;;;;5075849;28;20470;-58
2022/04/10 01:21:34;;;;;;;3.10;2.80;;;4.90;99.90;;;;;;5076006;28;20448;-58
2022/04/10 01:24:03;;;;;;;7.83;3.87;;;4.80;99.90;;;;;;5076046;28;20421;-58
2022/04/10 01:26:30;;;;;;;7.27;4.00;;;4.80;99.90;;;;;;5075983;28;20456;-58
2022/04/10 01:29:02;;;;;;;4.90;3.37;;;4.90;99.90;;;;;;5075429;28;20480;-58
2022/04/10 01:31:30;;;;;;;5.60;3.30;;;4.90;99.90;;;;;;5075534;28;20524;-58
2022/04/10 01:33:59;;;;;;;10.67;4.20;;;4.90;99.90;;;;;;5075584;28;20495;-58
2022/04/10 01:36:28;;;;;;;8.60;3.33;;;5.00;99.90;;;;;;5075749;28;20448;-58
2022/04/10 01:38:56;;;;;;;6.30;3.60;;;5.00;99.90;;;;;;5075170;28;20461;-59
2022/04/10 01:41:26;;;;;;;4.30;3.63;;;5.10;99.90;;;;;;5075134;28;20452;-58
2022/04/10 01:43:54;;;;;;;4.50;4.13;;;5.10;99.90;;;;;;5075748;28;20447;-58
2022/04/10 01:46:23;;;;;;;3.83;3.47;;;5.20;99.90;;;;;;5075102;28;20459;-58
2022/04/10 01:48:50;;;;;;;5.30;3.90;;;5.20;99.90;;;;;;5075110;28;20468;-58
2022/04/10 01:51:17;;;;;;;4.03;3.73;;;5.20;99.90;;;;;;5075110;28;20965;-58
2022/04/10 01:53:45;;;;;;;4.07;3.40;;;5.20;99.90;;;;;;5075028;28;20518;-58
2022/04/10 01:56:12;;;;;;;6.90;3.83;;;5.20;99.90;;;;;;5075218;28;20958;-58
2022/04/10 01:58:42;;;;;;;7.23;4.30;;;5.10;99.90;;;;;;5075121;28;20555;-58
2022/04/10 02:01:10;;;;;;;5.53;3.57;;;5.10;99.90;;;;;;5074999;28;20936;-57
2022/04/10 02:03:38;;;;;;;8.17;3.70;;;5.00;99.90;;;;;;5074732;28;20455;-58
2022/04/10 02:06:08;;;;;;;4.13;3.70;;;5.00;99.90;;;;;;5074818;28;20782;-58
2022/04/10 02:08:36;;;;;;;4.53;3.57;;;5.10;99.90;;;;;;5074508;28;20504;-58
2022/04/10 02:11:09;;;;;;;4.63;3.97;;;5.00;99.90;;;;;;5074782;28;20445;-58
2022/04/10 02:13:36;;;;;;;5.03;3.80;;;5.00;99.90;;;;;;5074805;28;20469;-58
2022/04/10 02:16:06;;;;;;;5.70;3.47;;;5.00;99.90;;;;;;5074523;28;20456;-58
2022/04/10 02:18:33;;;;;;;4.27;3.87;;;5.00;99.90;;;;;;5074794;28;20476;-58
2022/04/10 02:21:00;;;;;;;4.63;3.60;;;5.00;99.90;;;;;;5074734;28;20455;-58
2022/04/10 02:23:27;;;;;;;4.37;3.97;;;5.00;99.90;;;;;;5074650;28;20462;-58
2022/04/10 02:25:54;;;;;;;4.60;4.30;;;4.90;99.90;;;;;;5074821;28;20807;-58
2022/04/10 02:28:22;;;;;;;5.17;3.70;;;4.90;99.90;;;;;;5074002;28;20901;-58
2022/04/10 02:30:49;;;;;;;4.80;4.13;;;4.80;99.90;;;;;;5074189;28;20448;-57
2022/04/10 02:33:17;;;;;;;8.20;4.13;;;4.80;99.90;;;;;;5074207;28;20480;-58
2022/04/10 02:35:45;;;;;;;4.07;3.77;;;4.60;99.90;;;;;;5074436;28;20451;-58
2022/04/10 02:38:12;;;;;;;4.00;3.67;;;4.60;99.90;;;;;;5074356;28;20471;-58
2022/04/10 02:40:39;;;;;;;5.43;4.53;;;4.60;99.90;;;;;;5074414;28;20448;-58
2022/04/10 02:43:08;;;;;;;5.07;4.20;;;4.60;99.90;;;;;;5074282;28;20808;-58
2022/04/10 02:45:35;;;;;;;6.80;3.70;;;4.60;99.90;;;;;;5074019;28;20486;-58
2022/04/10 02:48:02;;;;;;;4.17;3.87;;;4.60;99.90;;;;;;5073975;28;20472;-58
2022/04/10 02:50:31;;;;;;;4.57;4.27;;;4.50;99.90;;;;;;5073848;28;20453;-58
2022/04/10 02:52:58;;;;;;;4.27;3.97;;;4.50;99.90;;;;;;5074167;28;20475;-58
2022/04/10 02:55:25;;;;;;;6.23;5.63;;;4.40;99.90;;;;;;5073879;28;20488;-57
2022/04/10 02:57:52;;;;;;;5.97;3.77;;;4.40;99.90;;;;;;5073652;28;20468;-57
2022/04/10 03:00:20;;;;;;;5.80;4.20;;;4.40;99.90;;;;;;5073960;28;20549;-58
2022/04/10 03:02:47;;;;;;;4.43;4.10;;;4.40;99.90;;;;;;5074032;28;20498;-58
2022/04/10 03:05:16;;;;;;;4.60;4.20;;;4.30;99.90;;;;;;5073673;28;20441;-57
2022/04/10 03:07:44;;;;;;;4.90;4.40;;;4.30;99.90;;;;;;5073453;28;20477;-57
2022/04/10 03:10:11;;;;;;;4.63;4.23;;;4.20;99.90;;;;;;5073515;28;20543;-57
2022/04/10 03:12:39;;;;;;;5.00;4.60;;;4.30;99.90;;;;;;5073462;28;20923;-57
2022/04/10 03:15:07;;;;;;;4.50;4.10;;;4.20;99.90;;;;;;5073341;28;20480;-57
2022/04/10 03:17:34;;;;;;;5.00;4.30;;;4.10;99.90;;;;;;5073328;28;20551;-58
2022/04/10 03:20:01;;;;;;;4.67;4.27;;;4.10;99.90;;;;;;5073389;28;20939;-57
2022/04/10 03:22:29;;;;;;;4.47;4.07;;;4.10;99.90;;;;;;5073216;28;20449;-58
2022/04/10 03:24:57;;;;;;;4.77;4.27;;;4.10;99.90;;;;;;5073294;28;20938;-58
2022/04/10 03:27:24;;;;;;;4.90;4.50;;;4.10;99.90;;;;;;5073108;28;20480;-58
2022/04/10 03:29:52;;;;;;;4.77;4.37;;;4.20;99.90;;;;;;5073262;28;20532;-58
2022/04/10 03:32:19;;;;;;;8.90;5.37;;;4.10;99.90;;;;;;5073591;28;20444;-58
2022/04/10 03:34:46;;;;;;;6.90;4.90;;;4.00;99.90;;;;;;5073320;28;20486;-58
2022/04/10 03:37:13;;;;;;;8.27;4.53;;;4.00;99.90;;;;;;5073247;28;20474;-58
2022/04/10 03:39:40;;;;;;;4.60;4.20;;;4.00;99.90;;;;;;5073544;28;20445;-58
2022/04/10 03:42:09;;;;;;;8.40;5.03;;;4.00;99.90;;;;;;5073153;28;20448;-58
2022/04/10 03:44:36;;;;;;;4.70;4.30;;;3.90;99.90;;;;;;5073405;28;20447;-58
2022/04/10 03:47:04;;;;;;;6.00;5.03;;;4.00;99.90;;;;;;5073347;28;20448;-58
2022/04/10 03:49:31;;;;;;;5.13;4.73;;;3.90;99.90;;;;;;5073489;28;20452;-58
2022/04/10 03:51:58;;;;;;;5.97;4.70;;;3.90;99.90;;;;;;5073397;28;20450;-57
2022/04/10 03:54:25;;;;;;;5.60;5.10;;;3.90;99.90;;;;;;5073012;28;20888;-58
2022/04/10 03:56:52;;;;;;;5.33;4.83;;;3.90;99.90;;;;;;5073680;28;20452;-58
2022/04/10 03:59:21;;;;;;;8.43;5.63;;;3.90;99.90;;;;;;5073405;28;20467;-57
2022/04/10 04:01:48;;;;;;;4.57;4.17;;;3.90;99.90;;;;;;5073326;28;20550;-58
2022/04/10 04:04:15;;;;;;;5.93;5.43;;;4.00;99.90;;;;;;5072962;28;20945;-57
2022/04/10 04:06:42;;;;;;;6.40;5.17;;;4.00;99.90;;;;;;5073021;28;20456;-58
2022/04/10 04:09:09;;;;;;;6.30;4.90;;;4.00;99.90;;;;;;5072595;28;20469;-57
2022/04/10 04:11:36;;;;;;;5.53;5.03;;;3.90;99.90;;;;;;5073058;28;20448;-58
2022/04/10 04:14:03;;;;;;;7.17;5.80;;;3.90;99.90;;;;;;5073361;28;20483;-57
2022/04/10 04:16:33;;;;;;;5.50;5.10;;;4.00;99.90;;;;;;5072819;28;20449;-57
2022/04/10 04:19:00;;;;;;;9.03;5.73;;;4.00;99.90;;;;;;5073173;28;20830;-58
2022/04/10 04:21:27;;;;;;;6.20;4.80;;;4.10;99.90;;;;;;5072945;28;20448;-57
2022/04/10 04:23:54;;;;;;;5.67;5.17;;;4.10;99.90;;;;;;5073024;28;20813;-57
2022/04/10 04:26:21;;;;;;;9.33;4.97;;;4.20;99.90;;;;;;5072996;28;20551;-57
2022/04/10 04:28:48;;;;;;;6.63;5.83;;;4.20;99.90;;;;;;5072678;28;20518;-57
2022/04/10 04:31:15;;;;;;;5.40;4.93;;;4.20;99.90;;;;;;5072708;28;20994;-58
2022/04/10 04:33:44;;;;;;;6.47;5.93;;;4.30;99.90;;;;;;5076393;28;20444;-58
2022/04/10 04:36:11;;;;;;;5.53;5.03;;;4.30;99.90;;;;;;5076498;28;20544;-58
2022/04/10 04:38:38;;;;;;;6.10;5.60;;;4.30;99.90;;;;;;5076320;28;20521;-58
2022/04/10 04:41:08;;;;;;;7.53;6.13;;;4.40;99.90;;;;;;5076350;28;20943;-58
2022/04/10 04:43:35;;;;;;;5.50;4.97;;;4.40;99.90;;;;;;5076685;28;20452;-57
2022/04/10 04:46:02;;;;;;;7.07;5.40;;;4.50;99.90;;;;;;5076207;28;20458;-58
2022/04/10 04:48:29;;;;;;;6.60;5.90;;;4.50;99.90;;;;;;5076252;28;20475;-58
2022/04/10 04:51:00;;;;;;;8.53;5.40;;;4.60;99.90;;;;;;5076639;28;20886;-58
2022/04/10 04:53:27;;;;;;;5.70;5.10;;;4.60;99.90;;;;;;5076373;28;20903;-58
2022/04/10 04:55:54;;;;;;;5.20;4.70;;;4.60;99.90;;;;;;5076328;28;21027;-58
2022/04/10 04:58:21;;;;;;;6.17;5.57;;;4.70;99.90;;;;;;5076082;28;20468;-58
2022/04/10 05:00:48;;;;;;;6.63;6.03;;;4.70;99.90;;;;;;5076378;28;20448;-57
2022/04/10 05:03:16;;;;;;;5.63;5.10;;;4.80;99.90;;;;;;5075895;28;20456;-58
2022/04/10 05:05:43;;;;;;;8.67;6.73;;;4.70;99.90;;;;;;5075903;28;20977;-58
2022/04/10 05:08:12;;;;;;;6.43;5.80;;;4.70;99.90;;;;;;5075890;28;20472;-57
2022/04/10 05:10:39;;;;;;;15.03;9.00;;;4.80;99.90;;;;;;5075802;28;20452;-58
2022/04/10 05:13:08;;;;;;;11.27;9.07;;;4.80;99.90;;;;;;5075690;28;20448;-57
2022/04/10 05:15:35;;;;;;;7.00;6.30;;;4.90;99.90;;;;;;5075707;28;20483;-57
2022/04/10 05:18:02;;;;;;;8.43;7.40;;;4.90;99.90;;;;;;5075865;28;20555;-58
2022/04/10 05:20:30;;;;;;;7.93;6.90;;;4.90;99.90;;;;;;5075589;28;20452;-57
2022/04/10 05:22:57;;;;;;;8.87;6.60;;;5.00;99.90;;;;;;5075945;28;20444;-58
2022/04/10 05:25:25;;;;;;;6.00;4.90;;;4.90;99.90;;;;;;5075765;28;20515;-58
2022/04/10 05:27:52;;;;;;;5.97;5.37;;;5.00;99.90;;;;;;5075284;28;20484;-58
2022/04/10 05:30:20;;;;;;;5.00;4.60;;;5.00;99.90;;;;;;5075865;28;20449;-57
2022/04/10 05:32:47;;;;;;;6.27;4.77;;;5.10;99.90;;;;;;5075739;28;20440;-58
2022/04/10 05:35:14;;;;;;;5.87;5.37;;;5.10;99.90;;;;;;5075571;28;20491;-58
2022/04/10 05:37:41;;;;;;;7.43;5.47;;;5.20;99.90;;;;;;5075357;28;20564;-58
2022/04/10 05:40:10;;;;;;;5.67;4.97;;;5.10;99.90;;;;;;5075584;28;20456;-57
2022/04/10 05:42:43;;;;;;;5.67;5.10;;;5.10;99.90;;;;;;5075113;28;20484;-57
2022/04/10 05:45:10;;;;;;;7.17;5.47;;;5.20;99.90;;;;;;5074710;28;20471;-57
2022/04/10 05:47:39;;;;;;;7.30;6.20;;;5.20;99.90;;;;;;5075442;28;20555;-58
2022/04/10 05:50:07;;;;;;;7.60;5.00;;;5.20;99.90;;;;;;5075030;28;20444;-58
2022/04/10 05:52:38;;;;;;;7.40;5.50;;;5.20;99.90;;;;;;5075214;28;20506;-58
2022/04/10 05:55:07;;;;;;;5.63;5.17;;;5.20;99.90;;;;;;5075300;28;20484;-57
2022/04/10 05:57:34;;;;;;;6.10;5.57;;;5.20;99.90;;;;;;5075219;28;20476;-58
2022/04/10 06:00:05;;;;;;;5.90;5.30;;;5.10;99.90;;;;;;5075180;28;20444;-57
2022/04/10 06:02:32;;;;;;;7.73;5.03;;;5.10;99.90;;;;;;5074872;28;20432;-57
2022/04/10 06:04:59;;;;;;;6.03;5.33;;;5.10;99.90;;;;;;5074883;28;20447;-57
2022/04/10 06:07:27;;;;;;;5.73;5.17;;;5.10;99.90;;;;;;5074745;28;20468;-58
2022/04/10 06:09:54;;;;;;;5.10;4.70;;;5.30;99.90;;;;;;5074632;28;20457;-57
2022/04/10 06:12:21;;;;;;;7.77;5.90;;;5.40;99.90;;;;;;5074617;28;20958;-57
2022/04/10 06:14:50;;;;;;;7.50;6.00;;;5.60;99.90;;;;;;5074811;28;20488;-57
2022/04/10 06:17:19;;;;;;;5.57;5.17;;;5.70;99.90;;;;;;5074751;28;20547;-57
2022/04/10 06:19:46;;;;;;;6.53;5.10;;;5.80;99.90;;;;;;5074791;28;20444;-58
2022/04/10 06:22:14;;;;;;;5.23;4.73;;;5.70;99.90;;;;;;5074385;28;20559;-58
2022/04/10 06:24:41;;;;;;;4.03;3.73;;;5.90;99.90;;;;;;5074316;28;20949;-58
2022/04/10 06:27:08;;;;;;;6.13;5.20;;;5.80;99.90;;;;;;5074186;28;20433;-57
2022/04/10 06:29:36;;;;;;;5.97;5.40;;;5.80;99.90;;;;;;5074586;28;20440;-57
2022/04/10 06:32:03;;;;;;;8.50;5.03;;;5.90;99.90;;;;;;5074217;28;20448;-57
2022/04/10 06:34:32;;;;;;;6.93;4.93;;;6.00;99.90;;;;;;5074497;28;20458;-57
2022/04/10 06:36:59;;;;;;;4.80;4.40;;;6.20;99.90;;;;;;5074394;28;20444;-58
2022/04/10 06:39:26;;;;;;;6.63;4.20;;;;;;;;;;5074043;28;20455;-58
2022/04/10 06:41:53;;;;;;;5.93;4.50;;;6.20;99.90;;;;;;5074332;28;20448;-58
2022/04/10 06:44:20;;;;;;;6.53;4.57;;;6.30;99.90;;;;;;5073925;28;21037;-58
2022/04/10 06:46:47;;;;;;;7.30;5.33;;;6.40;99.90;;;;;;5074230;28;20535;-58
2022/04/10 06:49:14;;;;;;;4.33;4.03;;;6.70;99.90;;;;;;5074120;28;20472;-58
2022/04/10 06:51:43;;;;;;;4.30;3.90;;;6.80;99.90;;;;;;5073788;28;20534;-58
2022/04/10 06:54:10;;;;;;;4.87;4.47;;;6.70;99.90;;;;;;5074116;28;20448;-58
2022/04/10 06:56:37;;;;;;;7.10;4.50;;;6.60;99.90;;;;;;5073199;28;20689;-58
2022/04/10 06:59:04;;;;;;;6.70;4.90;;;6.90;99.90;;;;;;5074015;28;20464;-58
2022/04/10 07:01:32;;;;;;;4.90;4.50;;;6.80;99.90;;;;;;5073685;28;21021;-58
2022/04/10 07:04:01;;;;;;;5.00;4.60;;;6.80;99.90;;;;;;5073670;28;20510;-58
2022/04/10 07:06:28;;;;;;;8.10;5.03;;;6.90;99.90;;;;;;5074130;28;20448;-58
2022/04/10 07:08:57;;;;;;;4.47;4.07;;;7.10;99.90;;;;;;5073509;28;20499;-59
2022/04/10 07:11:24;;;;;;;4.90;4.50;;;7.20;99.90;;;;;;5073823;28;20470;-59
2022/04/10 07:13:51;;;;;;;6.20;5.10;;;7.30;99.90;;;;;;5073922;28;20445;-59
2022/04/10 07:16:18;;;;;;;4.30;3.90;;;7.40;99.90;;;;;;5073687;28;20839;-59
2022/04/10 07:18:50;;;;;;;4.73;4.33;;;7.60;99.90;;;;;;5073329;28;20834;-59
2022/04/10 07:23:41;;;;;;;5.53;4.47;;;7.70;99.90;;;;;;5073461;28;20544;-59
2022/04/10 07:24:06;;;;;;;4.73;4.33;;;7.80;99.90;;;;;;5073306;28;20427;-59
2022/04/10 07:26:33;;;;;;;4.13;3.73;;;7.60;99.90;;;;;;5073839;28;20460;-59
2022/04/10 07:29:00;;;;;;;4.90;4.50;;;7.60;99.90;;;;;;5073057;28;20476;-58
2022/04/10 07:31:27;;;;;;;8.40;4.57;;;7.80;99.90;;;;;;5073476;28;20451;-59
2022/04/10 07:33:54;;;;;;;5.40;4.87;;;7.70;99.90;;;;;;5073869;28;20457;-59
2022/04/10 07:36:22;;;;;;;5.50;5.00;;;7.60;99.90;;;;;;5073463;28;20549;-58
2022/04/10 07:38:49;;;;;;;5.03;4.63;;;7.60;99.90;;;;;;5073296;28;20877;-59
2022/04/10 07:41:17;;;;;;;7.83;4.70;;;7.70;99.90;;;;;;5073672;28;20448;-59
2022/04/10 07:43:44;;;;;;;6.03;4.73;;;7.80;99.90;;;;;;5073355;28;20451;-59
2022/04/10 07:48:56;;;;;;;9.87;6.00;;;8.10;99.90;;;;;;5073150;28;20452;-59
2022/04/10 07:51:23;;;;;;;5.70;5.10;;;8.10;99.90;;;;;;5073443;28;20451;-59
2022/04/10 07:53:53;;;;;;;6.10;4.57;;;8.40;99.90;;;;;;5072779;28;20447;-59
2022/04/10 07:56:22;;;;;;;6.03;5.53;;;8.20;99.90;;;;;;5073318;28;20480;-59
2022/04/10 07:58:49;;;;;;;5.43;4.90;;;8.10;99.90;;;;;;5073292;28;20464;-58
2022/04/10 08:01:16;;;;;;;4.10;3.77;;;8.40;99.90;;;;;;5072923;28;20527;-58
2022/04/10 08:03:43;;;;;;;7.13;5.33;;;8.50;99.90;;;;;;5073235;28;20444;-58
2022/04/10 08:06:10;;;;;;;5.57;4.57;;;9.00;99.90;;;;;;5073329;28;20483;-59
2022/04/10 08:08:37;;;;;;;6.03;5.03;;;9.30;99.90;;;;;;5076289;28;20495;-59
2022/04/10 08:11:07;;;;;;;8.00;5.67;;;9.50;99.90;;;;;;5076933;28;20459;-59
2022/04/10 08:13:35;;;;;;;5.30;4.80;;;9.40;99.90;;;;;;5077173;28;20456;-59
2022/04/10 08:16:03;;;;;;;6.57;5.10;;;9.00;99.30;;;;;;5076835;28;20998;-58
2022/04/10 08:18:30;;;;;;;8.83;5.30;;;8.40;99.10;;;;;;5076737;28;20509;-58
2022/04/10 08:20:57;;;;;;;5.70;5.10;;;8.80;99.50;;;;;;5077015;28;20453;-59
2022/04/10 08:23:24;;;;;;;6.30;5.80;;;9.10;99.90;;;;;;5077043;28;20452;-58
2022/04/10 08:25:52;;;;;;;6.50;5.40;;;9.00;99.00;;;;;;5076887;28;20452;-59
2022/04/10 08:28:19;;;;;;;9.70;5.87;;;9.30;99.60;;;;;;5076543;28;20488;-59
2022/04/10 08:30:50;;;;;;;8.00;5.00;;;9.40;98.60;;;;;;5076908;28;20531;-59
2022/04/10 08:33:18;;;;;;;5.37;4.87;;;9.30;98.90;;;;;;5076516;28;20910;-59
2022/04/10 08:35:45;;;;;;;6.80;6.10;;;9.30;99.20;;;;;;5076819;28;20479;-59
2022/04/10 08:38:13;;;;;;;5.30;4.70;;;9.20;98.70;;;;;;5076923;28;20472;-59
2022/04/10 08:40:41;;;;;;;6.50;5.90;;;8.80;98.00;;;;;;5076334;28;20455;-59
2022/04/10 08:43:11;;;;;;;9.30;4.90;;;8.80;99.00;;;;;;5076370;28;20530;-59
2022/04/10 08:45:39;;;;;;;8.63;5.03;;;9.00;99.50;;;;;;5076709;28;20539;-59
2022/04/10 08:48:08;;;;;;;6.23;5.63;;;9.10;99.50;;;;;;5076338;28;20966;-58
2022/04/10 08:50:37;;;;;;;7.00;5.50;;;8.80;98.90;;;;;;5076474;28;20543;-59
2022/04/10 08:53:06;;;;;;;6.10;5.30;;;8.60;99.10;;;;;;5076289;28;20803;-59
2022/04/10 08:55:33;;;;;;;6.17;5.40;;;8.70;99.50;;;;;;5076250;28;20486;-59
2022/04/10 08:58:03;;;;;;;5.50;4.67;;;8.80;99.90;;;;;;5076331;28;20472;-59
2022/04/10 09:00:30;;;;;;;6.30;5.70;;;8.80;98.80;;;;;;5076118;28;20926;-58
2022/04/10 09:02:58;;;;;;;5.10;4.70;;;9.20;99.40;;;;;;5076333;28;20865;-59
2022/04/10 09:05:26;;;;;;;7.73;4.73;;;9.60;98.20;;;;;;5075948;28;20535;-59
2022/04/10 09:08:08;;;;;;;5.03;4.40;;;9.90;97.30;;;;;;5075778;28;20464;-59
2022/04/10 09:10:59;;;;;;;6.73;4.17;;;10.20;96.20;;;;;;5076029;28;20440;-58
2022/04/10 09:13:32;;;;;;;5.47;4.13;;;10.20;95.40;;;;;;5076032;28;20788;-58
2022/04/10 09:16:07;;;;;;;4.67;4.27;;;10.30;95.70;;;;;;5075649;28;20551;-58
2022/04/10 09:18:47;;;;;;;7.07;4.30;;;10.70;95.70;;;;;;5074645;28;20459;-58
2022/04/10 09:21:16;;;;;;;6.70;4.20;;;10.40;95.00;;;;;;5076071;28;20435;-58
2022/04/10 09:23:46;;;;;;;4.10;3.70;;;10.60;94.30;;;;;;5075512;28;20536;-58
2022/04/10 09:26:14;;;;;;;5.00;4.63;;;10.40;94.10;;;;;;5075799;28;20452;-57
2022/04/10 09:28:43;;;;;;;6.30;4.97;;;9.70;94.40;;;;;;5074210;28;20484;-58
2022/04/10 09:31:30;;;;;;;8.83;5.00;;;8.90;94.80;;;;;;5075528;28;20509;-57
2022/04/10 09:33:58;;;;;;;6.23;4.57;;;8.50;95.80;;;;;;5075780;28;20493;-57
2022/04/10 09:36:34;;;;;;;7.47;4.53;;;8.30;95.90;;;;;;5075246;28;20485;-57
2022/04/10 09:39:03;;;;;;;5.50;5.00;;;8.40;98.10;;;;;;5075510;28;20475;-58
2022/04/10 09:41:31;;;;;;;5.90;5.30;;;;;;;;;;5075486;28;20449;-57
2022/04/10 09:44:09;;;;;;;5.03;4.63;;;8.90;95.90;;;;;;5074857;28;21014;-58
2022/04/10 09:46:36;;;;;;;5.10;4.60;;;9.90;96.60;;;;;;5075130;28;20797;-58
2022/04/10 09:49:05;;;;;;;5.50;4.03;;;11.50;95.00;;;;;;5075305;28;20937;-58
2022/04/10 09:51:33;;;;;;;6.97;3.60;;;12.30;90.60;;;;;;5075426;28;20834;-58
2022/04/10 09:54:05;;;;;;;8.10;4.50;;;13.20;88.80;;;;;;5075019;28;20444;-59
2022/04/10 09:56:33;;;;;;;4.03;3.63;;;12.70;91.80;;;;;;5075324;28;20480;-58
2022/04/10 09:59:01;;;;;;;5.80;3.60;;;12.30;85.90;;;;;;5074975;28;20470;-58
2022/04/10 10:01:29;;;;;;;6.97;4.13;;;11.80;80.70;;;;;;5074897;28;20493;-58
2022/04/10 10:03:58;;;;;;;7.60;5.00;;;11.40;81.10;;;;;;5075047;28;20452;-58
2022/04/10 10:06:26;;;;;;;4.40;3.30;;;10.40;80.60;;;;;;5075028;28;20448;-58
2022/04/10 10:08:56;;;;;;;5.63;4.23;;;10.10;85.00;;;;;;5074718;28;20460;-58
2022/04/10 10:11:23;;;;;;;5.40;3.83;;;9.80;87.40;;;;;;5074789;28;20444;-58
2022/04/10 10:13:52;;;;;;;5.43;3.50;;;9.50;88.80;;;;;;5074664;28;20452;-58
2022/04/10 10:16:19;;;;;;;4.10;3.70;;;9.80;89.20;;;;;;5074821;28;20503;-58
2022/04/10 10:18:49;;;;;;;5.53;3.90;;;9.70;88.00;;;;;;5074727;28;20537;-58
2022/04/10 10:21:17;;;;;;;12.20;7.17;;;10.30;90.00;;;;;;5074275;28;20452;-58
2022/04/10 10:23:50;;;;;;;4.33;3.40;;;11.80;90.70;;;;;;5074326;28;20445;-58
2022/04/10 10:26:41;;;;;;;9.37;3.73;;;13.40;80.90;;;;;;5074868;28;20466;-59
2022/04/10 10:29:38;;;;;;;8.10;4.97;;;13.80;81.40;;;;;;5074255;28;20519;-58
2022/04/10 10:32:14;;;;;;;6.10;4.13;;;12.50;81.60;;;;;;5074536;28;20436;-58
2022/04/10 10:34:44;;;;;;;5.50;3.90;;;11.30;83.80;;;;;;5074726;28;20429;-58
2022/04/10 10:37:14;;;;;;;9.17;4.20;;;10.80;88.20;;;;;;5074351;28;20811;-57
2022/04/10 10:39:53;;;;;;;6.33;4.47;;;10.40;91.20;;;;;;5074013;28;20455;-58
2022/04/10 10:42:23;;;;;;;5.57;5.00;;;10.00;92.10;;;;;;5074262;28;20460;-58
2022/04/10 10:44:51;;;;;;;5.20;4.10;;;9.90;95.00;;;;;;5073910;28;20512;-57
2022/04/10 10:47:25;;;;;;;6.03;4.50;;;9.90;94.30;;;;;;5074038;28;20969;-57
2022/04/10 10:49:53;;;;;;;11.80;5.80;;;10.20;92.80;;;;;;5073984;28;20439;-58
2022/04/10 10:52:21;;;;;;;8.57;5.70;;;10.10;94.40;;;;;;5074133;28;20535;-58
2022/04/10 10:54:53;;;;;;;5.10;4.60;;;10.30;92.70;;;;;;5073819;28;20923;-58
2022/04/10 10:57:27;;;;;;;5.13;4.60;;;10.20;93.20;;;;;;5073705;28;20488;-58
2022/04/10 11:00:04;;;;;;;9.10;5.77;;;10.20;93.00;;;;;;5073757;28;20471;-57
2022/04/10 11:02:34;;;;;;;9.03;5.40;;;10.00;93.70;;;;;;5073818;28;20456;-57
2022/04/10 11:05:01;;;;;;;7.27;4.93;;;;;;;;;;5073620;28;20428;-57
2022/04/10 11:07:29;;;;;;;5.80;5.20;;;9.40;95.50;;;;;;5074180;28;20466;-58
2022/04/10 11:09:59;;;;;;;4.00;3.63;;;9.30;96.60;;;;;;5073523;28;20535;-58
2022/04/10 11:12:35;;;;;;;4.30;3.40;;;9.60;94.30;;;;;;5073873;28;20451;-58
2022/04/10 11:15:13;;;;;;;3.80;3.50;;;10.60;93.40;;;;;;5073882;28;20531;-57
2022/04/10 11:17:40;;;;;;;4.07;2.83;;;11.70;90.70;;;;;;5073850;28;20492;-58
2022/04/10 11:20:11;;;;;;;4.40;4.07;;;11.80;88.50;;;;;;5073554;28;20464;-58
2022/04/10 11:22:45;;;;;;;4.40;4.00;;;11.60;87.60;;;;;;5073548;28;20483;-58
2022/04/10 11:25:13;;;;;;;3.87;3.57;;;;;;;;;;5073720;28;20452;-58
2022/04/10 11:27:52;;;;;;;4.47;3.40;;;10.50;89.00;;;;;;5073439;28;20480;-58
2022/04/10 11:30:26;;;;;;;5.67;4.07;;;10.10;89.00;;;;;;5073267;28;20478;-58
2022/04/10 11:32:55;;;;;;;6.00;4.50;;;9.80;90.70;;;;;;5073648;28;20428;-58
2022/04/10 11:35:25;;;;;;;5.37;4.50;;;9.80;90.80;;;;;;5073304;28;20448;-58
2022/04/10 11:37:54;;;;;;;4.93;4.53;;;10.00;90.40;;;;;;5073119;28;20495;-58
2022/04/10 11:40:26;;;;;;;5.33;4.73;;;10.30;90.50;;;;;;5073499;28;20501;-57
2022/04/10 11:42:55;;;;;;;5.47;4.20;;;10.50;88.30;;;;;;5072743;28;20448;-58
2022/04/10 11:45:23;;;;;;;4.83;4.40;;;10.90;90.00;;;;;;5073076;28;20452;-58
2022/04/10 11:47:51;;;;;;;6.07;4.50;;;11.60;87.40;;;;;;5073351;28;20456;-58
2022/04/10 11:50:20;;;;;;;4.77;4.27;;;12.20;85.50;;;;;;5073338;28;20452;-58
2022/04/10 11:53:02;;;;;;;7.30;5.23;;;11.90;83.20;;;;;;5073299;28;20532;-58
2022/04/10 11:55:31;;;;;;;4.87;4.03;;;12.70;82.90;;;;;;5073132;28;20547;-58
2022/04/10 11:58:00;;;;;;;7.03;4.23;;;13.30;83.40;;;;;;5072846;28;20537;-58
2022/04/10 12:00:28;;;;;;;5.03;3.77;;;12.70;81.60;;;;;;5073001;28;20924;-58
2022/04/10 12:02:55;;;;;;;5.60;5.07;;;12.80;80.00;;;;;;5073290;28;20815;-58
2022/04/10 12:05:29;;;;;;;5.70;4.97;;;12.10;83.70;;;;;;5073203;28;20448;-58
2022/04/10 12:08:00;;;;;;;6.40;4.97;;;;;;;;;;5073318;28;20460;-58
2022/04/10 12:10:28;;;;;;;5.67;5.07;;;10.80;90.40;;;;;;5073225;28;20452;-58
2022/04/10 12:12:56;;;;;;;6.20;5.60;;;10.20;91.30;;;;;;5072465;28;20455;-58
2022/04/10 12:15:25;;;;;;;8.87;6.43;;;9.90;92.50;;;;;;5073131;28;20498;-58
2022/04/10 12:18:05;;;;;;;6.87;5.10;;;;;;;;;;5072860;28;20510;-58
2022/04/10 12:20:32;;;;;;;5.27;4.80;;;10.40;88.10;;;;;;5072683;28;20429;-58
2022/04/10 12:23:00;;;;;;;5.17;4.67;;;11.40;91.60;;;;;;5072970;28;20460;-58
2022/04/10 12:25:28;;;;;;;6.53;4.97;;;12.40;87.90;;;;;;5073297;28;20460;-58
2022/04/10 12:27:55;;;;;;;7.00;4.37;;;13.00;84.30;;;;;;5072587;28;20480;-59
2022/04/10 12:30:24;;;;;;;4.30;3.60;;;13.00;82.40;;;;;;5073070;28;20528;-58
2022/04/10 12:32:52;;;;;;;5.47;3.67;;;12.60;81.60;;;;;;5072841;28;20927;-58
2022/04/10 12:35:19;;;;;;;3.77;3.47;;;12.50;86.10;;;;;;5073102;28;20451;-58
2022/04/10 12:37:47;;;;;;;6.20;4.50;;;13.00;85.60;;;;;;5072644;28;20557;-58
2022/04/10 12:40:26;;;;;;;4.53;4.13;;;13.30;83.60;;;;;;5072660;28;20935;-58
2022/04/10 12:42:58;;;;;;;3.97;3.67;;;12.60;83.70;;;;;;5072915;28;20435;-58
2022/04/10 12:45:30;;;;;;;4.67;4.27;;;12.30;85.80;;;;;;5073094;28;20453;-58
2022/04/10 12:47:57;;;;;;;4.80;4.30;;;12.10;87.30;;;;;;5072930;28;20855;-58
2022/04/10 12:50:26;;;;;;;5.63;5.10;;;11.60;88.70;;;;;;5073044;28;20842;-58
2022/04/10 12:52:55;;;;;;;6.00;5.50;;;11.20;89.60;;;;;;5073352;28;20535;-58
2022/04/10 12:55:24;;;;;;;5.97;4.43;;;11.50;91.10;;;;;;5076329;28;20499;-58
2022/04/10 12:57:56;;;;;;;5.23;4.30;;;11.20;90.50;;;;;;5076130;28;20878;-58
2022/04/10 13:00:26;;;;;;;7.50;3.90;;;11.40;88.60;;;;;;5076211;28;20448;-57
2022/04/10 13:02:53;;;;;;;7.73;5.03;;;11.40;90.00;;;;;;5076443;28;20452;-58
2022/04/10 13:05:21;;;;;;;5.73;4.20;;;11.70;89.70;;;;;;5076294;28;20444;-58